createdAt,value
2018-04-29T04:45:26.331Z,15.97
2018-04-29T04:47:53.886Z,16.03
2018-04-29T04:50:21.502Z,16.28
2018-04-29T04:52:49.114Z,15.88
2018-04-29T04:55:16.786Z,16.24
2018-04-29T04:57:44.337Z,16.14
2018-04-29T05:00:11.986Z,16.48
2018-04-29T05:02:39.546Z,16.98
2018-04-29T05:05:07.094Z,17.01
2018-04-29T05:07:34.682Z,17.29
2018-04-29T05:10:02.239Z,17.01
2018-04-29T05:12:29.833Z,17.60
2018-04-29T05:14:57.389Z,17.89
2018-04-29T05:17:25.065Z,17.78
2018-04-29T05:19:52.621Z,17.89
2018-04-29T05:22:20.177Z,17.76
2018-04-29T05:24:47.846Z,17.87
2018-04-29T05:27:15.469Z,18.24
2018-04-29T05:29:43.062Z,18.49
2018-04-29T05:32:10.731Z,18.46
2018-04-29T05:34:38.281Z,18.23
2018-04-29T05:37:05.829Z,18.14
2018-04-29T05:39:33.404Z,18.73
2018-04-29T05:42:01.071Z,19.09
2018-04-29T05:44:28.627Z,19.06
2018-04-29T05:46:56.182Z,19.25
2018-04-29T05:49:23.854Z,18.87
2018-04-29T05:51:51.417Z,18.84
2018-04-29T05:54:19.023Z,19.39
2018-04-29T05:56:46.630Z,19.08
2018-04-29T05:59:14.219Z,19.57
2018-04-29T06:01:41.775Z,20.18
2018-04-29T06:04:09.386Z,20.30
2018-04-29T06:06:37.226Z,20.37
2018-04-29T06:09:05.718Z,20.65
2018-04-29T06:11:33.383Z,20.26
2018-04-29T06:14:01.042Z,20.17
2018-04-29T06:16:28.558Z,20.69
2018-04-29T06:18:56.978Z,20.21
2018-04-29T06:21:24.580Z,20.08
2018-04-29T06:23:52.121Z,20.13
2018-04-29T06:26:19.757Z,20.61
2018-04-29T06:28:47.367Z,20.84
2018-04-29T06:31:14.907Z,20.95
2018-04-29T06:33:42.552Z,20.86
2018-04-29T06:36:10.093Z,20.62
2018-04-29T06:38:37.755Z,21.11
2018-04-29T06:41:05.306Z,20.97
2018-04-29T06:43:32.868Z,21.41
2018-04-29T06:46:00.481Z,21.53
2018-04-29T06:48:28.886Z,21.94
2018-04-29T06:50:56.492Z,21.64
2018-04-29T06:53:24.098Z,21.69
2018-04-29T06:55:51.733Z,20.85
2018-04-29T06:58:19.285Z,21.08
2018-04-29T07:00:46.903Z,20.98
2018-04-29T07:03:14.449Z,21.07
2018-04-29T07:05:42.054Z,21.10
2018-04-29T07:08:09.672Z,21.01
2018-04-29T07:10:37.334Z,21.06
2018-04-29T07:13:04.946Z,21.15
2018-04-29T07:15:32.533Z,21.46
2018-04-29T07:18:00.231Z,21.97
2018-04-29T07:20:27.770Z,21.89
2018-04-29T07:22:55.369Z,21.72
2018-04-29T07:25:22.958Z,21.80
2018-04-29T07:27:50.597Z,21.17
2018-04-29T07:30:19.019Z,21.35
2018-04-29T07:32:46.565Z,21.47
2018-04-29T07:35:14.240Z,21.58
2018-04-29T07:37:41.852Z,22.26
2018-04-29T07:40:09.492Z,22.83
2018-04-29T07:42:37.083Z,22.97
2018-04-29T07:45:04.743Z,23.45
2018-04-29T07:47:32.342Z,23.85
2018-04-29T07:49:59.998Z,23.54
2018-04-29T07:52:27.581Z,23.09
2018-04-29T07:54:55.268Z,23.18
2018-04-29T07:57:22.979Z,23.04
2018-04-29T07:59:50.588Z,23.10
2018-04-29T08:02:18.654Z,24.00
2018-04-29T08:04:46.202Z,24.97
2018-04-29T08:07:13.842Z,25.45
2018-04-29T08:09:41.487Z,26.86
2018-04-29T08:12:09.086Z,26.31
2018-04-29T08:14:36.693Z,26.22
2018-04-29T08:17:04.242Z,28.68
2018-04-29T08:19:31.830Z,29.83
2018-04-29T08:21:59.866Z,30.54
2018-04-29T08:24:27.478Z,30.59
2018-04-29T08:26:55.118Z,31.48
2018-04-29T08:29:22.665Z,28.03
2018-04-29T08:31:50.996Z,29.72
2018-04-29T08:34:18.538Z,31.95
2018-04-29T08:36:46.213Z,31.92
2018-04-29T08:39:13.789Z,32.14
2018-04-29T08:41:42.378Z,32.32
2018-04-29T08:44:10.331Z,33.29
2018-04-29T08:46:37.874Z,33.67
2018-04-29T08:49:05.477Z,33.40
2018-04-29T08:51:33.903Z,33.97
2018-04-29T08:54:01.502Z,32.90
2018-04-29T08:56:29.056Z,32.51
2018-04-29T08:58:56.623Z,32.77
2018-04-29T09:01:24.802Z,32.01
2018-04-29T09:03:52.512Z,31.15
2018-04-29T09:06:20.046Z,31.34
2018-04-29T09:08:47.836Z,33.36
2018-04-29T09:11:15.442Z,32.58
2018-04-29T09:13:42.986Z,33.20
2018-04-29T09:16:10.681Z,33.40
2018-04-29T09:18:38.299Z,33.13
2018-04-29T09:21:05.857Z,33.65
2018-04-29T09:23:33.456Z,34.16
2018-04-29T09:26:01.139Z,32.97
2018-04-29T09:28:28.738Z,32.05
2018-04-29T09:30:56.428Z,32.41
2018-04-29T09:33:24.095Z,32.50
2018-04-29T09:35:52.347Z,32.62
2018-04-29T09:38:19.942Z,32.65
2018-04-29T09:40:47.514Z,35.68
2018-04-29T09:43:15.133Z,37.25
2018-04-29T09:45:42.682Z,35.10
2018-04-29T09:48:10.291Z,34.29
2018-04-29T09:50:38.040Z,34.64
2018-04-29T09:53:05.602Z,34.47
2018-04-29T09:55:33.150Z,35.33
2018-04-29T09:58:00.911Z,35.03
2018-04-29T10:00:28.521Z,35.64
2018-04-29T10:03:11.726Z,35.01
2018-04-29T10:05:39.285Z,33.01
2018-04-29T10:08:07.830Z,32.43
2018-04-29T10:10:35.370Z,34.77
2018-04-29T10:13:02.960Z,34.81
2018-04-29T10:15:30.568Z,34.12
2018-04-29T10:17:58.169Z,34.37
2018-04-29T10:20:25.718Z,34.13
2018-04-29T10:22:53.323Z,34.60
2018-04-29T10:25:20.917Z,35.60
2018-04-29T10:27:48.458Z,34.69
2018-04-29T10:30:16.127Z,35.60
2018-04-29T10:32:44.545Z,35.77
2018-04-29T10:35:12.041Z,36.31
2018-04-29T10:37:39.642Z,39.54
2018-04-29T10:40:07.229Z,34.53
2018-04-29T10:42:34.846Z,32.59
2018-04-29T10:45:02.505Z,33.92
2018-04-29T10:47:31.049Z,34.93
2018-04-29T10:49:58.638Z,35.05
2018-04-29T10:52:26.231Z,36.47
2018-04-29T10:54:53.846Z,35.51
2018-04-29T10:57:21.394Z,35.98
2018-04-29T10:59:48.964Z,36.30
2018-04-29T11:02:16.642Z,37.65
2018-04-29T11:04:46.255Z,38.06
2018-04-29T11:07:13.798Z,37.52
2018-04-29T11:09:41.407Z,38.80
2018-04-29T11:12:09.021Z,38.19
2018-04-29T11:14:36.589Z,34.96
2018-04-29T11:17:05.142Z,34.58
2018-04-29T11:19:32.687Z,34.28
2018-04-29T11:22:00.282Z,35.57
2018-04-29T11:24:27.943Z,36.49
2018-04-29T11:26:56.314Z,36.69
2018-04-29T11:29:24.924Z,36.90
2018-04-29T11:31:52.526Z,36.13
2018-04-29T11:34:20.170Z,34.31
2018-04-29T11:36:48.596Z,32.92
2018-04-29T11:39:18.050Z,34.23
2018-04-29T11:41:45.796Z,34.73
2018-04-29T11:44:13.403Z,35.17
2018-04-29T11:46:41.974Z,35.69
2018-04-29T11:49:09.576Z,37.47
2018-04-29T11:51:37.126Z,37.77
2018-04-29T11:54:05.574Z,37.49
2018-04-29T11:56:33.186Z,36.88
2018-04-29T11:59:00.738Z,34.40
2018-04-29T12:01:28.389Z,34.94
2018-04-29T12:03:56.006Z,35.91
2018-04-29T12:06:23.559Z,35.84
2018-04-29T12:08:51.155Z,35.58
2018-04-29T12:11:18.829Z,35.32
2018-04-29T12:13:46.439Z,35.42
2018-04-29T12:16:13.986Z,35.87
2018-04-29T12:18:41.577Z,35.47
2018-04-29T12:21:10.046Z,35.97
2018-04-29T12:23:38.470Z,35.98
2018-04-29T12:26:06.023Z,36.37
2018-04-29T12:28:33.694Z,35.16
2018-04-29T12:31:02.163Z,34.32
2018-04-29T12:33:29.767Z,34.38
2018-04-29T12:35:57.306Z,35.70
2018-04-29T12:38:24.890Z,35.22
2018-04-29T12:40:52.446Z,35.84
2018-04-29T12:43:20.041Z,36.10
2018-04-29T12:45:47.626Z,36.50
2018-04-29T12:48:15.215Z,35.48
2018-04-29T12:50:42.818Z,34.99
2018-04-29T12:53:10.362Z,35.17
2018-04-29T12:55:37.967Z,34.19
2018-04-29T12:58:05.563Z,34.66
2018-04-29T13:00:33.105Z,35.95
2018-04-29T13:03:00.649Z,36.26
2018-04-29T13:05:28.300Z,36.74
2018-04-29T13:07:55.902Z,35.70
2018-04-29T13:10:24.037Z,35.99
2018-04-29T13:12:52.694Z,36.88
2018-04-29T13:15:20.354Z,36.39
2018-04-29T13:17:48.413Z,35.99
2018-04-29T13:20:16.092Z,36.03
2018-04-29T13:22:44.929Z,35.49
2018-04-29T13:25:13.060Z,34.78
2018-04-29T13:27:40.738Z,34.63
2018-04-29T13:30:09.326Z,34.68
2018-04-29T13:32:37.071Z,35.44
2018-04-29T13:35:04.681Z,35.47
2018-04-29T13:37:32.331Z,35.05
2018-04-29T13:40:00.904Z,35.53
2018-04-29T13:42:29.279Z,35.76
2018-04-29T13:44:57.986Z,35.26
2018-04-29T13:47:26.875Z,35.98
2018-04-29T13:49:54.478Z,33.65
2018-04-29T13:52:22.102Z,31.89
2018-04-29T13:54:49.658Z,30.82
2018-04-29T13:57:17.200Z,30.38
2018-04-29T13:59:44.811Z,30.41
2018-04-29T14:02:13.122Z,30.09
2018-04-29T14:04:40.779Z,30.05
2018-04-29T14:07:09.252Z,30.23
2018-04-29T14:09:37.748Z,30.09
2018-04-29T14:12:06.255Z,29.27
2018-04-29T14:14:33.802Z,28.44
2018-04-29T14:17:02.035Z,27.95
2018-04-29T14:19:29.665Z,27.89
2018-04-29T14:21:58.049Z,27.71
2018-04-29T14:24:26.738Z,27.34
2018-04-29T14:26:54.455Z,27.38
2018-04-29T14:29:22.067Z,27.42
2018-04-29T14:31:49.801Z,27.50
2018-04-29T14:34:17.495Z,27.57
2018-04-29T14:36:45.034Z,28.47
2018-04-29T14:39:13.380Z,29.00
2018-04-29T14:41:40.930Z,29.37
2018-04-29T14:44:08.494Z,29.50
2018-04-29T14:46:36.126Z,29.61
2018-04-29T14:49:04.522Z,29.90
2018-04-29T14:51:32.063Z,29.02
2018-04-29T14:54:00.383Z,28.83
2018-04-29T14:56:28.742Z,28.10
2018-04-29T14:58:57.114Z,28.04
2018-04-29T15:01:25.308Z,28.30
2018-04-29T15:03:52.891Z,28.04
2018-04-29T15:06:21.499Z,27.21
2018-04-29T15:08:49.106Z,26.70
2018-04-29T15:11:16.856Z,26.69
2018-04-29T15:13:44.502Z,26.02
2018-04-29T15:16:13.069Z,25.79
2018-04-29T15:18:52.325Z,25.61
2018-04-29T15:21:19.870Z,25.50
2018-04-29T15:23:47.523Z,25.34
2018-04-29T15:26:15.673Z,25.15
2018-04-29T15:28:43.283Z,25.16
2018-04-29T15:31:11.805Z,25.09
2018-04-29T15:33:40.429Z,24.76
2018-04-29T15:36:07.984Z,24.59
2018-04-29T15:38:35.574Z,24.47
2018-04-29T15:41:03.249Z,24.47
2018-04-29T15:43:31.807Z,24.36
2018-04-29T15:45:59.359Z,24.11
2018-04-29T15:48:27.024Z,23.94
2018-04-29T15:50:55.513Z,23.75
2018-04-29T15:53:23.098Z,23.74
2018-04-29T15:55:50.746Z,23.72
2018-04-29T15:58:18.299Z,23.67
2018-04-29T16:00:45.901Z,23.79
2018-04-29T16:03:13.450Z,23.72
2018-04-29T16:05:41.088Z,23.51
2018-04-29T16:08:08.665Z,23.47
2018-04-29T16:10:36.718Z,23.33
2018-04-29T16:13:04.301Z,23.10
2018-04-29T16:15:32.050Z,22.98
2018-04-29T16:17:59.787Z,22.90
2018-04-29T16:20:27.354Z,22.85
2018-04-29T16:22:55.019Z,22.84
2018-04-29T16:25:23.518Z,22.86
2018-04-29T16:27:51.058Z,22.87
2018-04-29T16:30:18.701Z,22.84
2018-04-29T16:32:46.351Z,22.68
2018-04-29T16:35:14.705Z,22.55
2018-04-29T16:37:43.105Z,22.50
2018-04-29T16:40:10.692Z,22.43
2018-04-29T16:42:38.247Z,22.35
2018-04-29T16:45:05.899Z,22.30
2018-04-29T16:47:34.298Z,22.26
2018-04-29T16:50:02.155Z,22.15
2018-04-29T16:52:29.750Z,22.11
2018-04-29T16:54:57.350Z,21.95
2018-04-29T16:57:24.913Z,21.89
2018-04-29T16:59:52.934Z,21.74
2018-04-29T17:02:21.321Z,21.52
2018-04-29T17:04:49.721Z,21.46
2018-04-29T17:07:17.956Z,21.37
2018-04-29T17:09:45.686Z,21.23
2018-04-29T17:12:13.288Z,21.11
2018-04-29T17:14:42.358Z,21.02
2018-04-29T17:17:10.039Z,20.92
2018-04-29T17:19:37.615Z,20.85
2018-04-29T17:22:05.201Z,20.82
2018-04-29T17:24:32.752Z,20.81
2018-04-29T17:27:00.594Z,20.76
2018-04-29T17:29:28.256Z,20.59
2018-04-29T17:31:56.759Z,20.46
2018-04-29T17:34:25.638Z,20.34
2018-04-29T17:36:53.274Z,20.24
2018-04-29T17:39:21.694Z,20.25
2018-04-29T17:41:49.351Z,20.21
2018-04-29T17:44:16.955Z,20.16
2018-04-29T17:46:44.606Z,20.11
2018-04-29T17:49:12.316Z,20.11
2018-04-29T17:51:41.228Z,20.01
2018-04-29T17:54:09.847Z,19.92
2018-04-29T17:56:38.969Z,19.99
2018-04-29T17:59:06.507Z,19.95
2018-04-29T18:01:34.475Z,19.88
2018-04-29T18:04:02.109Z,19.88
2018-04-29T18:06:29.717Z,19.98
2018-04-29T18:08:58.810Z,20.01
2018-04-29T18:11:27.002Z,19.99
2018-04-29T18:13:58.483Z,19.99
2018-04-29T18:16:26.066Z,19.91
2018-04-29T18:18:53.608Z,19.94
2018-04-29T18:21:21.990Z,19.85
2018-04-29T18:23:49.537Z,19.81
2018-04-29T18:26:17.963Z,19.79
2018-04-29T18:28:45.658Z,19.69
2018-04-29T18:31:14.006Z,19.58
2018-04-29T18:33:41.614Z,19.57
2018-04-29T18:36:09.274Z,19.53
2018-04-29T18:38:36.885Z,19.56
2018-04-29T18:41:04.426Z,19.51
2018-04-29T18:43:32.038Z,19.53
2018-04-29T18:45:59.706Z,19.58
2018-04-29T18:48:27.346Z,19.59
2018-04-29T18:50:56.008Z,19.55
2018-04-29T18:53:24.513Z,19.52
2018-04-29T18:55:52.102Z,19.44
2018-04-29T18:58:19.726Z,19.44
2018-04-29T19:00:47.345Z,19.47
2018-04-29T19:03:15.991Z,19.39
2018-04-29T19:05:47.454Z,19.34
2018-04-29T19:08:15.062Z,19.26
2018-04-29T19:10:42.616Z,19.18
2018-04-29T19:13:11.018Z,19.10
2018-04-29T19:15:38.558Z,19.09
2018-04-29T19:18:06.159Z,19.00
2018-04-29T19:20:33.759Z,18.89
2018-04-29T19:23:01.368Z,18.87
2018-04-29T19:25:30.347Z,18.78
2018-04-29T19:28:00.115Z,18.75
2018-04-29T19:30:27.719Z,18.60
2018-04-29T19:32:57.427Z,18.59
2018-04-29T19:35:24.971Z,18.48
2018-04-29T19:37:53.179Z,18.38
2018-04-29T19:40:20.747Z,18.34
2018-04-29T19:42:49.027Z,18.35
2018-04-29T19:45:16.683Z,18.32
2018-04-29T19:47:44.230Z,18.29
2018-04-29T19:50:11.862Z,18.28
2018-04-29T19:52:39.434Z,18.20
2018-04-29T19:55:07.519Z,18.02
2018-04-29T19:57:35.507Z,17.93
2018-04-29T20:00:03.054Z,17.92
2018-04-29T20:02:31.114Z,17.92
2018-04-29T20:04:58.658Z,17.88
2018-04-29T20:07:26.202Z,17.85
2018-04-29T20:09:54.039Z,17.86
2018-04-29T20:12:21.582Z,17.82
2018-04-29T20:14:49.183Z,17.72
2018-04-29T20:17:18.026Z,17.66
2018-04-29T20:19:45.618Z,17.63
2018-04-29T20:22:13.698Z,17.50
2018-04-29T20:24:41.315Z,17.41
2018-04-29T20:27:08.922Z,17.30
2018-04-29T20:29:36.564Z,17.34
2018-04-29T20:32:04.202Z,17.15
2018-04-29T20:34:32.682Z,17.13
2018-04-29T20:37:00.222Z,17.07
2018-04-29T20:39:27.827Z,16.94
2018-04-29T20:41:55.455Z,16.95
2018-04-29T20:44:23.038Z,16.94
2018-04-29T20:46:50.641Z,16.92
2018-04-29T20:49:18.282Z,16.77
2018-04-29T20:51:45.825Z,16.76
2018-04-29T20:54:13.421Z,16.69
2018-04-29T20:56:40.967Z,16.65
2018-04-29T20:59:09.028Z,16.53
2018-04-29T21:01:36.641Z,16.47
2018-04-29T21:04:04.198Z,16.36
2018-04-29T21:06:31.935Z,16.32
2018-04-29T21:08:59.688Z,16.33
2018-04-29T21:11:27.290Z,16.24
2018-04-29T21:13:54.982Z,16.23
2018-04-29T21:16:23.338Z,16.12
2018-04-29T21:18:51.909Z,16.11
2018-04-29T21:21:19.446Z,15.97
2018-04-29T21:23:46.986Z,15.85
2018-04-29T21:26:14.576Z,15.98
2018-04-29T21:28:42.114Z,15.92
2018-04-29T21:31:09.725Z,15.81
2018-04-29T21:33:37.339Z,15.89
2018-04-29T21:36:04.941Z,15.84
2018-04-29T21:38:32.602Z,15.96
2018-04-29T21:41:00.146Z,16.00
2018-04-29T21:43:27.904Z,15.97
2018-04-29T21:45:55.514Z,15.92
2018-04-29T21:48:25.074Z,15.92
2018-04-29T21:50:52.616Z,15.82
2018-04-29T21:53:20.255Z,15.61
2018-04-29T21:55:47.802Z,15.73
2018-04-29T21:58:15.386Z,15.66
2018-04-29T22:00:42.983Z,15.56
2018-04-29T22:03:10.579Z,15.56
2018-04-29T22:05:38.125Z,15.55
2018-04-29T22:08:05.738Z,15.48
2018-04-29T22:10:33.286Z,15.49
2018-04-29T22:13:02.555Z,15.33
2018-04-29T22:15:30.210Z,15.32
2018-04-29T22:17:58.757Z,15.30
2018-04-29T22:20:26.371Z,15.23
2018-04-29T22:22:54.041Z,15.18
2018-04-29T22:25:21.642Z,15.15
2018-04-29T22:27:49.275Z,15.06
2018-04-29T22:30:16.814Z,15.13
2018-04-29T22:32:44.358Z,15.05
2018-04-29T22:35:11.955Z,14.90
2018-04-29T22:37:39.557Z,14.81
2018-04-29T22:40:08.090Z,14.81
2018-04-29T22:42:35.634Z,14.69
2018-04-29T22:45:03.183Z,14.75
2018-04-29T22:47:30.830Z,14.76
2018-04-29T22:49:58.474Z,14.59
2018-04-29T22:52:26.074Z,14.54
2018-04-29T22:54:53.621Z,14.46
2018-04-29T22:57:22.042Z,14.42
2018-04-29T22:59:49.616Z,14.49
2018-04-29T23:02:19.079Z,14.54
2018-04-29T23:04:46.689Z,14.53
2018-04-29T23:07:14.234Z,14.62
2018-04-29T23:09:42.802Z,14.56
2018-04-29T23:12:10.342Z,14.46
2018-04-29T23:14:37.984Z,14.41
2018-04-29T23:17:05.654Z,14.34
2018-04-29T23:19:34.049Z,14.27
2018-04-29T23:22:01.592Z,14.20
2018-04-29T23:24:29.188Z,14.15
2018-04-29T23:26:56.730Z,14.09
2018-04-29T23:29:24.270Z,13.92
2018-04-29T23:31:51.866Z,13.85
2018-04-29T23:34:19.410Z,13.90
2018-04-29T23:36:46.997Z,13.85
2018-04-29T23:39:14.538Z,13.82
2018-04-29T23:41:43.022Z,13.80
2018-04-29T23:44:10.607Z,13.81
2018-04-29T23:46:38.210Z,13.74
2018-04-29T23:49:05.864Z,13.77
2018-04-29T23:51:33.406Z,13.78
2018-04-29T23:54:01.042Z,13.80
2018-04-29T23:56:28.588Z,13.77
2018-04-29T23:58:56.240Z,13.72
